sensor_id;sensor_type;location;lat;lon;timestamp;pressure;altitude;pressure_sealevel;temperature;humidity
71948;BME280;63257;55.082;38.772;2023-09-19T00:02:03;100410.28;;;10.16;100.00
71948;BME280;63257;55.082;38.772;2023-09-19T00:04:33;100404.63;;;10.05;100.00
71948;BME280;63257;55.082;38.772;2023-09-19T00:07:00;100381.06;;;9.81;100.00
71948;BME280;63257;55.082;38.772;2023-09-19T00:09:28;100406.09;;;9.92;100.00
71948;BME280;63257;55.082;38.772;2023-09-19T00:11:54;100398.69;;;9.79;100.00
71948;BME280;63257;55.082;38.772;2023-09-19T00:14:20;100398.97;;;9.73;100.00
71948;BME280;63257;55.082;38.772;2023-09-19T00:16:45;100405.09;;;9.74;100.00
71948;BME280;63257;55.082;38.772;2023-09-19T00:19:12;100405.22;;;9.71;100.00
71948;BME280;63257;55.082;38.772;2023-09-19T00:21:38;100400.22;;;9.64;100.00
71948;BME280;63257;55.082;38.772;2023-09-19T00:24:06;100400.28;;;9.63;100.00
71948;BME280;63257;55.082;38.772;2023-09-19T00:26:32;100406.50;;;9.62;100.00
71948;BME280;63257;55.082;38.772;2023-09-19T00:29:00;100404.97;;;9.56;100.00
71948;BME280;63257;55.082;38.772;2023-09-19T00:31:34;100408.59;;;9.54;100.00
71948;BME280;63257;55.082;38.772;2023-09-19T00:34:03;100391.34;;;9.45;100.00
71948;BME280;63257;55.082;38.772;2023-09-19T00:36:29;100407.78;;;9.51;100.00
71948;BME280;63257;55.082;38.772;2023-09-19T00:38:55;100395.09;;;9.39;100.00
71948;BME280;63257;55.082;38.772;2023-09-19T00:41:21;100405.28;;;9.48;100.00
71948;BME280;63257;55.082;38.772;2023-09-19T00:43:47;100403.56;;;9.47;100.00
71948;BME280;63257;55.082;38.772;2023-09-19T00:46:17;100388.19;;;9.37;100.00
71948;BME280;63257;55.082;38.772;2023-09-19T00:48:43;100400.13;;;9.45;100.00
71948;BME280;63257;55.082;38.772;2023-09-19T00:51:10;100396.63;;;9.45;100.00
71948;BME280;63257;55.082;38.772;2023-09-19T00:53:36;100397.38;;;9.48;100.00
71948;BME280;63257;55.082;38.772;2023-09-19T00:56:03;100377.41;;;9.43;99.45
71948;BME280;63257;55.082;38.772;2023-09-19T00:58:34;100406.88;;;9.53;99.04
71948;BME280;63257;55.082;38.772;2023-09-19T01:01:01;100393.00;;;9.47;99.48
71948;BME280;63257;55.082;38.772;2023-09-19T01:03:35;100383.47;;;9.45;99.50
71948;BME280;63257;55.082;38.772;2023-09-19T01:06:01;100395.34;;;9.55;99.49
71948;BME280;63257;55.082;38.772;2023-09-19T01:08:28;100382.22;;;9.54;100.00
71948;BME280;63257;55.082;38.772;2023-09-19T01:10:59;100395.00;;;9.63;100.00
71948;BME280;63257;55.082;38.772;2023-09-19T01:28:20;100390.47;;;9.87;100.00
71948;BME280;63257;55.082;38.772;2023-09-19T01:30:52;100397.19;;;9.94;100.00
71948;BME280;63257;55.082;38.772;2023-09-19T01:33:23;100384.06;;;9.93;100.00
71948;BME280;63257;55.082;38.772;2023-09-19T01:35:49;100409.66;;;10.11;100.00
71948;BME280;63257;55.082;38.772;2023-09-19T01:38:16;100374.25;;;9.96;100.00
71948;BME280;63257;55.082;38.772;2023-09-19T01:40:43;100386.75;;;10.12;100.00
71948;BME280;63257;55.082;38.772;2023-09-19T01:43:24;100405.41;;;10.28;100.00
71948;BME280;63257;55.082;38.772;2023-09-19T01:49:03;100402.63;;;10.31;100.00
71948;BME280;63257;55.082;38.772;2023-09-19T01:54:19;100396.44;;;10.32;100.00
71948;BME280;63257;55.082;38.772;2023-09-19T01:57:02;100402.31;;;10.39;100.00
71948;BME280;63257;55.082;38.772;2023-09-19T01:59:43;100388.19;;;10.40;100.00
71948;BME280;63257;55.082;38.772;2023-09-19T02:02:12;100395.19;;;10.41;100.00
71948;BME280;63257;55.082;38.772;2023-09-19T02:04:38;100381.34;;;10.35;100.00
71948;BME280;63257;55.082;38.772;2023-09-19T02:07:04;100408.97;;;10.47;100.00
71948;BME280;63257;55.082;38.772;2023-09-19T02:09:31;100402.84;;;10.47;100.00
71948;BME280;63257;55.082;38.772;2023-09-19T02:12:01;100405.41;;;10.48;100.00
71948;BME280;63257;55.082;38.772;2023-09-19T02:14:29;100382.78;;;10.43;100.00
71948;BME280;63257;55.082;38.772;2023-09-19T02:16:55;100355.28;;;10.28;100.00
71948;BME280;63257;55.082;38.772;2023-09-19T02:19:22;100372.41;;;10.38;100.00
71948;BME280;63257;55.082;38.772;2023-09-19T02:21:49;100376.09;;;10.34;100.00
71948;BME280;63257;55.082;38.772;2023-09-19T02:24:15;100397.34;;;10.51;100.00
71948;BME280;63257;55.082;38.772;2023-09-19T02:26:41;100378.34;;;10.43;100.00
71948;BME280;63257;55.082;38.772;2023-09-19T02:29:08;100363.38;;;10.44;100.00
71948;BME280;63257;55.082;38.772;2023-09-19T02:31:38;100365.09;;;10.45;100.00
71948;BME280;63257;55.082;38.772;2023-09-19T02:34:05;100371.34;;;10.42;100.00
71948;BME280;63257;55.082;38.772;2023-09-19T02:36:32;100400.81;;;10.52;100.00
71948;BME280;63257;55.082;38.772;2023-09-19T02:38:57;100398.25;;;10.50;100.00
71948;BME280;63257;55.082;38.772;2023-09-19T02:41:23;100382.84;;;10.41;100.00
71948;BME280;63257;55.082;38.772;2023-09-19T02:43:49;100375.88;;;10.40;99.83
71948;BME280;63257;55.082;38.772;2023-09-19T02:46:15;100386.03;;;10.48;100.00
71948;BME280;63257;55.082;38.772;2023-09-19T02:48:42;100392.97;;;10.50;99.90
71948;BME280;63257;55.082;38.772;2023-09-19T02:51:08;100365.38;;;10.39;99.86
71948;BME280;63257;55.082;38.772;2023-09-19T02:53:34;100396.53;;;10.49;99.56
71948;BME280;63257;55.082;38.772;2023-09-19T02:56:00;100386.34;;;10.42;99.55
71948;BME280;63257;55.082;38.772;2023-09-19T02:58:27;100394.13;;;10.45;99.55
71948;BME280;63257;55.082;38.772;2023-09-19T03:00:53;100399.31;;;10.46;99.82
71948;BME280;63257;55.082;38.772;2023-09-19T03:03:21;100393.19;;;10.46;99.40
71948;BME280;63257;55.082;38.772;2023-09-19T03:05:47;100402.75;;;10.48;98.79
71948;BME280;63257;55.082;38.772;2023-09-19T03:08:15;100399.91;;;10.53;98.55
71948;BME280;63257;55.082;38.772;2023-09-19T03:10:41;100402.19;;;10.42;98.59
71948;BME280;63257;55.082;38.772;2023-09-19T03:13:07;100381.97;;;10.41;98.42
71948;BME280;63257;55.082;38.772;2023-09-19T03:15:35;100393.03;;;10.49;98.67
71948;BME280;63257;55.082;38.772;2023-09-19T03:18:05;100395.69;;;10.49;98.87
71948;BME280;63257;55.082;38.772;2023-09-19T03:20:32;100404.09;;;10.57;98.65
71948;BME280;63257;55.082;38.772;2023-09-19T03:22:58;100379.78;;;10.50;97.85
71948;BME280;63257;55.082;38.772;2023-09-19T03:25:26;100404.91;;;10.59;97.54
71948;BME280;63257;55.082;38.772;2023-09-19T03:27:52;100394.28;;;10.61;97.73
71948;BME280;63257;55.082;38.772;2023-09-19T03:30:19;100401.19;;;10.63;97.77
71948;BME280;63257;55.082;38.772;2023-09-19T03:32:46;100399.63;;;10.59;97.71
71948;BME280;63257;55.082;38.772;2023-09-19T03:35:13;100397.84;;;10.60;97.63
71948;BME280;63257;55.082;38.772;2023-09-19T03:37:41;100394.19;;;10.62;97.47
71948;BME280;63257;55.082;38.772;2023-09-19T03:40:11;100395.34;;;10.57;97.23
71948;BME280;63257;55.082;38.772;2023-09-19T03:42:39;100375.41;;;10.49;97.09
71948;BME280;63257;55.082;38.772;2023-09-19T03:45:06;100371.16;;;10.47;97.12
71948;BME280;63257;55.082;38.772;2023-09-19T03:47:33;100381.94;;;10.61;96.93
71948;BME280;63257;55.082;38.772;2023-09-19T03:50:01;100383.78;;;10.59;97.32
71948;BME280;63257;55.082;38.772;2023-09-19T03:52:29;100382.06;;;10.58;96.96
71948;BME280;63257;55.082;38.772;2023-09-19T03:54:55;100379.50;;;10.57;96.85
71948;BME280;63257;55.082;38.772;2023-09-19T03:57:21;100372.44;;;10.57;97.06
71948;BME280;63257;55.082;38.772;2023-09-19T03:59:46;100358.88;;;10.46;96.69
71948;BME280;63257;55.082;38.772;2023-09-19T04:02:13;100374.56;;;10.49;96.71
71948;BME280;63257;55.082;38.772;2023-09-19T04:04:49;100359.22;;;10.38;96.75
71948;BME280;63257;55.082;38.772;2023-09-19T04:07:16;100361.78;;;10.40;96.45
71948;BME280;63257;55.082;38.772;2023-09-19T04:09:42;100354.94;;;10.35;96.49
71948;BME280;63257;55.082;38.772;2023-09-19T04:12:08;100378.94;;;10.50;96.53
71948;BME280;63257;55.082;38.772;2023-09-19T04:14:38;100374.56;;;10.49;96.80
71948;BME280;63257;55.082;38.772;2023-09-19T04:17:04;100371.50;;;10.58;96.31
71948;BME280;63257;55.082;38.772;2023-09-19T04:19:33;100378.13;;;10.67;95.60
71948;BME280;63257;55.082;38.772;2023-09-19T04:21:59;100370.38;;;10.64;95.29
71948;BME280;63257;55.082;38.772;2023-09-19T04:24:25;100383.16;;;10.73;94.68
71948;BME280;63257;55.082;38.772;2023-09-19T04:26:51;100375.78;;;10.80;94.66
71948;BME280;63257;55.082;38.772;2023-09-19T04:29:18;100379.94;;;10.85;94.77
71948;BME280;63257;55.082;38.772;2023-09-19T04:31:45;100362.63;;;10.78;94.57
71948;BME280;63257;55.082;38.772;2023-09-19T04:34:12;100395.63;;;10.89;95.05
71948;BME280;63257;55.082;38.772;2023-09-19T04:36:41;100388.91;;;11.00;94.12
71948;BME280;63257;55.082;38.772;2023-09-19T04:39:07;100387.03;;;11.02;93.27
71948;BME280;63257;55.082;38.772;2023-09-19T04:41:34;100378.03;;;11.07;93.17
71948;BME280;63257;55.082;38.772;2023-09-19T04:44:00;100366.91;;;11.00;93.19
71948;BME280;63257;55.082;38.772;2023-09-19T04:46:26;100395.28;;;11.14;93.34
71948;BME280;63257;55.082;38.772;2023-09-19T04:48:52;100376.78;;;11.14;93.15
71948;BME280;63257;55.082;38.772;2023-09-19T04:51:18;100392.19;;;11.23;92.97
71948;BME280;63257;55.082;38.772;2023-09-19T04:53:46;100387.63;;;11.27;92.87
71948;BME280;63257;55.082;38.772;2023-09-19T04:56:13;100387.41;;;11.31;92.33
71948;BME280;63257;55.082;38.772;2023-09-19T04:58:39;100385.47;;;11.35;92.06
71948;BME280;63257;55.082;38.772;2023-09-19T05:01:05;100377.31;;;11.40;92.12
71948;BME280;63257;55.082;38.772;2023-09-19T05:03:31;100367.81;;;11.35;91.95
71948;BME280;63257;55.082;38.772;2023-09-19T05:05:57;100376.94;;;11.47;91.91
71948;BME280;63257;55.082;38.772;2023-09-19T05:08:23;100359.72;;;11.38;91.85
71948;BME280;63257;55.082;38.772;2023-09-19T05:10:49;100364.94;;;11.40;91.41
71948;BME280;63257;55.082;38.772;2023-09-19T05:13:16;100349.06;;;11.40;91.61
71948;BME280;63257;55.082;38.772;2023-09-19T05:15:41;100373.78;;;11.57;91.48
71948;BME280;63257;55.082;38.772;2023-09-19T05:18:07;100387.09;;;11.73;91.08
71948;BME280;63257;55.082;38.772;2023-09-19T05:20:34;100376.22;;;11.79;90.57
71948;BME280;63257;55.082;38.772;2023-09-19T05:23:02;100386.31;;;11.88;90.85
71948;BME280;63257;55.082;38.772;2023-09-19T05:25:32;100370.59;;;11.85;90.46
71948;BME280;63257;55.082;38.772;2023-09-19T05:28:00;100377.00;;;11.98;90.04
71948;BME280;63257;55.082;38.772;2023-09-19T05:30:29;100363.69;;;12.00;89.94
71948;BME280;63257;55.082;38.772;2023-09-19T05:32:55;100365.94;;;12.08;90.19
71948;BME280;63257;55.082;38.772;2023-09-19T05:35:22;100361.34;;;12.11;89.50
71948;BME280;63257;55.082;38.772;2023-09-19T05:37:52;100355.56;;;12.20;89.09
71948;BME280;63257;55.082;38.772;2023-09-19T05:40:18;100375.81;;;12.37;88.08
71948;BME280;63257;55.082;38.772;2023-09-19T05:42:48;100373.53;;;12.47;88.53
71948;BME280;63257;55.082;38.772;2023-09-19T05:45:16;100371.47;;;12.52;88.50
71948;BME280;63257;55.082;38.772;2023-09-19T05:47:49;100374.66;;;12.59;87.64
71948;BME280;63257;55.082;38.772;2023-09-19T05:50:15;100370.19;;;12.60;87.61
71948;BME280;63257;55.082;38.772;2023-09-19T05:52:42;100370.06;;;12.63;87.63
71948;BME280;63257;55.082;38.772;2023-09-19T05:55:11;100352.53;;;12.60;87.82
71948;BME280;63257;55.082;38.772;2023-09-19T05:57:37;100355.53;;;12.70;87.22
71948;BME280;63257;55.082;38.772;2023-09-19T06:00:08;100348.69;;;12.66;87.15
71948;BME280;63257;55.082;38.772;2023-09-19T06:02:39;100350.75;;;12.77;86.89
71948;BME280;63257;55.082;38.772;2023-09-19T06:05:06;100361.25;;;12.94;86.08
71948;BME280;63257;55.082;38.772;2023-09-19T06:07:37;100369.44;;;13.05;86.55
71948;BME280;63257;55.082;38.772;2023-09-19T06:10:04;100368.03;;;13.14;85.55
71948;BME280;63257;55.082;38.772;2023-09-19T06:12:38;100360.88;;;13.16;85.30
71948;BME280;63257;55.082;38.772;2023-09-19T06:15:05;100366.69;;;13.23;84.79
71948;BME280;63257;55.082;38.772;2023-09-19T06:17:31;100336.84;;;13.19;85.30
71948;BME280;63257;55.082;38.772;2023-09-19T06:19:57;100337.44;;;13.24;85.76
71948;BME280;63257;55.082;38.772;2023-09-19T06:22:24;100333.28;;;13.35;85.65
71948;BME280;63257;55.082;38.772;2023-09-19T06:24:50;100348.25;;;13.52;84.99
71948;BME280;63257;55.082;38.772;2023-09-19T06:27:16;100342.28;;;13.63;84.89
71948;BME280;63257;55.082;38.772;2023-09-19T06:29:42;100346.59;;;13.80;84.04
71948;BME280;63257;55.082;38.772;2023-09-19T06:32:08;100336.19;;;13.77;83.86
71948;BME280;63257;55.082;38.772;2023-09-19T06:34:36;100330.09;;;13.74;82.88
71948;BME280;63257;55.082;38.772;2023-09-19T06:37:03;100337.31;;;13.87;83.08
71948;BME280;63257;55.082;38.772;2023-09-19T06:39:28;100334.47;;;13.90;82.84
71948;BME280;63257;55.082;38.772;2023-09-19T06:41:54;100341.78;;;14.01;82.66
71948;BME280;63257;55.082;38.772;2023-09-19T06:44:21;100350.59;;;14.16;82.71
71948;BME280;63257;55.082;38.772;2023-09-19T06:46:50;100346.91;;;14.18;82.12
71948;BME280;63257;55.082;38.772;2023-09-19T06:49:17;100350.41;;;14.33;81.73
71948;BME280;63257;55.082;38.772;2023-09-19T06:51:43;100353.34;;;14.43;81.79
71948;BME280;63257;55.082;38.772;2023-09-19T06:54:12;100346.41;;;14.55;81.70
71948;BME280;63257;55.082;38.772;2023-09-19T06:56:40;100343.28;;;14.63;81.15
71948;BME280;63257;55.082;38.772;2023-09-19T06:59:07;100326.72;;;14.57;80.98
71948;BME280;63257;55.082;38.772;2023-09-19T07:01:32;100341.22;;;14.81;80.71
71948;BME280;63257;55.082;38.772;2023-09-19T07:03:59;100353.09;;;14.89;80.37
71948;BME280;63257;55.082;38.772;2023-09-19T07:06:25;100345.56;;;14.96;79.76
71948;BME280;63257;55.082;38.772;2023-09-19T07:08:51;100339.00;;;15.02;79.18
71948;BME280;63257;55.082;38.772;2023-09-19T07:11:17;100345.16;;;15.02;79.45
71948;BME280;63257;55.082;38.772;2023-09-19T07:13:42;100316.50;;;14.93;79.93
71948;BME280;63257;55.082;38.772;2023-09-19T07:16:09;100330.91;;;15.03;80.45
71948;BME280;63257;55.082;38.772;2023-09-19T07:18:53;100314.09;;;15.03;79.52
71948;BME280;63257;55.082;38.772;2023-09-19T07:21:20;100324.03;;;15.14;79.57
71948;BME280;63257;55.082;38.772;2023-09-19T07:23:47;100340.03;;;15.26;79.86
71948;BME280;63257;55.082;38.772;2023-09-19T07:26:13;100324.69;;;15.30;79.48
71948;BME280;63257;55.082;38.772;2023-09-19T07:28:38;100333.47;;;15.45;79.35
71948;BME280;63257;55.082;38.772;2023-09-19T07:31:04;100328.38;;;15.55;78.69
71948;BME280;63257;55.082;38.772;2023-09-19T07:33:30;100315.06;;;15.55;78.12
71948;BME280;63257;55.082;38.772;2023-09-19T07:35:56;100306.91;;;15.71;77.75
71948;BME280;63257;55.082;38.772;2023-09-19T07:38:22;100318.31;;;15.86;77.82
71948;BME280;63257;55.082;38.772;2023-09-19T07:40:48;100324.91;;;15.93;77.36
71948;BME280;63257;55.082;38.772;2023-09-19T07:43:14;100328.31;;;16.08;76.74
71948;BME280;63257;55.082;38.772;2023-09-19T07:45:40;100321.16;;;16.21;75.73
71948;BME280;63257;55.082;38.772;2023-09-19T07:48:07;100320.41;;;16.32;76.49
71948;BME280;63257;55.082;38.772;2023-09-19T07:50:40;100303.13;;;16.25;76.19
71948;BME280;63257;55.082;38.772;2023-09-19T07:53:09;100310.38;;;16.36;75.52
71948;BME280;63257;55.082;38.772;2023-09-19T07:55:34;100315.16;;;16.43;76.11
71948;BME280;63257;55.082;38.772;2023-09-19T07:58:00;100319.41;;;16.46;76.34
71948;BME280;63257;55.082;38.772;2023-09-19T08:00:26;100324.50;;;16.49;76.16
71948;BME280;63257;55.082;38.772;2023-09-19T08:02:52;100328.88;;;16.50;76.34
71948;BME280;63257;55.082;38.772;2023-09-19T08:05:18;100318.34;;;16.49;75.82
71948;BME280;63257;55.082;38.772;2023-09-19T08:07:45;100307.28;;;16.42;75.62
71948;BME280;63257;55.082;38.772;2023-09-19T08:10:14;100306.38;;;16.54;75.50
71948;BME280;63257;55.082;38.772;2023-09-19T08:12:43;100314.22;;;16.69;75.46
71948;BME280;63257;55.082;38.772;2023-09-19T08:15:17;100313.06;;;16.84;75.08
71948;BME280;63257;55.082;38.772;2023-09-19T08:17:43;100315.50;;;17.00;74.88
71948;BME280;63257;55.082;38.772;2023-09-19T08:20:10;100309.50;;;17.09;74.07
71948;BME280;63257;55.082;38.772;2023-09-19T08:22:44;100290.34;;;17.16;73.62
71948;BME280;63257;55.082;38.772;2023-09-19T08:25:14;100302.06;;;17.37;72.79
71948;BME280;63257;55.082;38.772;2023-09-19T08:27:40;100293.44;;;17.34;72.49
71948;BME280;63257;55.082;38.772;2023-09-19T08:30:06;100315.78;;;17.44;72.02
71948;BME280;63257;55.082;38.772;2023-09-19T08:32:32;100315.91;;;17.42;72.33
71948;BME280;63257;55.082;38.772;2023-09-19T08:34:58;100303.03;;;17.36;73.62
71948;BME280;63257;55.082;38.772;2023-09-19T08:37:24;100308.44;;;17.23;73.42
71948;BME280;63257;55.082;38.772;2023-09-19T08:39:50;100298.81;;;17.09;73.29
71948;BME280;63257;55.082;38.772;2023-09-19T08:42:16;100322.69;;;17.11;73.99
71948;BME280;63257;55.082;38.772;2023-09-19T08:44:43;100319.63;;;17.04;74.09
71948;BME280;63257;55.082;38.772;2023-09-19T08:47:11;100281.91;;;16.73;73.95
71948;BME280;63257;55.082;38.772;2023-09-19T08:49:57;100322.53;;;17.01;73.86
71948;BME280;63257;55.082;38.772;2023-09-19T08:52:40;100319.41;;;17.07;74.67
71948;BME280;63257;55.082;38.772;2023-09-19T08:55:07;100308.53;;;17.10;74.77
71948;BME280;63257;55.082;38.772;2023-09-19T08:57:38;100306.94;;;17.08;74.81
71948;BME280;63257;55.082;38.772;2023-09-19T09:00:08;100306.94;;;17.08;75.10
71948;BME280;63257;55.082;38.772;2023-09-19T09:02:38;100309.09;;;17.03;75.49
71948;BME280;63257;55.082;38.772;2023-09-19T09:05:10;100278.53;;;16.95;75.34
71948;BME280;63257;55.082;38.772;2023-09-19T09:07:43;100267.50;;;17.00;75.45
71948;BME280;63257;55.082;38.772;2023-09-19T09:10:09;100288.94;;;17.23;74.96
71948;BME280;63257;55.082;38.772;2023-09-19T09:12:35;100269.53;;;17.32;74.43
71948;BME280;63257;55.082;38.772;2023-09-19T09:15:06;100290.72;;;17.58;73.72
71948;BME280;63257;55.082;38.772;2023-09-19T09:17:34;100283.22;;;17.74;73.17
71948;BME280;63257;55.082;38.772;2023-09-19T09:20:00;100287.47;;;17.88;72.55
71948;BME280;63257;55.082;38.772;2023-09-19T09:22:26;100284.72;;;18.12;70.68
71948;BME280;63257;55.082;38.772;2023-09-19T09:24:55;100275.69;;;18.36;71.07
71948;BME280;63257;55.082;38.772;2023-09-19T09:27:30;100266.03;;;18.68;69.80
71948;BME280;63257;55.082;38.772;2023-09-19T09:29:57;100253.34;;;18.81;68.72
71948;BME280;63257;55.082;38.772;2023-09-19T09:32:30;100255.38;;;19.00;68.13
71948;BME280;63257;55.082;38.772;2023-09-19T09:35:01;100267.25;;;19.28;67.33
71948;BME280;63257;55.082;38.772;2023-09-19T09:37:31;100252.16;;;19.48;66.68
71948;BME280;63257;55.082;38.772;2023-09-19T09:40:01;100246.34;;;19.43;66.30
71948;BME280;63257;55.082;38.772;2023-09-19T09:42:40;100245.66;;;19.41;66.70
71948;BME280;63257;55.082;38.772;2023-09-19T09:45:14;100261.13;;;19.38;66.51
71948;BME280;63257;55.082;38.772;2023-09-19T09:47:47;100260.31;;;19.26;67.77
71948;BME280;63257;55.082;38.772;2023-09-19T09:50:35;100265.94;;;19.23;68.13
71948;BME280;63257;55.082;38.772;2023-09-19T09:53:03;100235.22;;;19.17;66.96
71948;BME280;63257;55.082;38.772;2023-09-19T09:56:04;100253.22;;;19.36;67.71
71948;BME280;63257;55.082;38.772;2023-09-19T09:58:49;100249.03;;;19.43;67.41
71948;BME280;63257;55.082;38.772;2023-09-19T10:01:15;100250.28;;;19.39;67.79
71948;BME280;63257;55.082;38.772;2023-09-19T10:03:45;100255.94;;;19.46;67.52
71948;BME280;63257;55.082;38.772;2023-09-19T10:06:16;100251.56;;;19.45;68.09
71948;BME280;63257;55.082;38.772;2023-09-19T10:09:04;100238.31;;;19.43;67.80
71948;BME280;63257;55.082;38.772;2023-09-19T10:11:44;100238.00;;;19.58;67.56
71948;BME280;63257;55.082;38.772;2023-09-19T10:14:17;100236.66;;;19.73;66.48
71948;BME280;63257;55.082;38.772;2023-09-19T10:16:46;100232.97;;;19.95;66.35
71948;BME280;63257;55.082;38.772;2023-09-19T10:19:45;100227.34;;;20.08;65.80
71948;BME280;63257;55.082;38.772;2023-09-19T10:22:17;100216.81;;;20.16;65.88
71948;BME280;63257;55.082;38.772;2023-09-19T10:24:49;100230.13;;;20.28;64.95
71948;BME280;63257;55.082;38.772;2023-09-19T10:27:19;100213.88;;;20.29;63.97
71948;BME280;63257;55.082;38.772;2023-09-19T10:29:48;100199.09;;;20.45;63.99
71948;BME280;63257;55.082;38.772;2023-09-19T10:32:16;100213.91;;;20.59;63.47
71948;BME280;63257;55.082;38.772;2023-09-19T10:34:48;100196.84;;;20.60;63.60
71948;BME280;63257;55.082;38.772;2023-09-19T10:37:16;100207.31;;;20.82;63.40
71948;BME280;63257;55.082;38.772;2023-09-19T10:39:46;100188.97;;;20.78;63.02
71948;BME280;63257;55.082;38.772;2023-09-19T10:42:17;100185.28;;;20.89;62.25
71948;BME280;63257;55.082;38.772;2023-09-19T10:44:45;100204.47;;;21.04;63.43
71948;BME280;63257;55.082;38.772;2023-09-19T10:47:13;100202.50;;;21.06;62.05
71948;BME280;63257;55.082;38.772;2023-09-19T10:49:44;100195.00;;;21.09;61.77
71948;BME280;63257;55.082;38.772;2023-09-19T10:52:13;100196.13;;;21.16;62.50
71948;BME280;63257;55.082;38.772;2023-09-19T10:54:48;100199.91;;;21.24;60.66
71948;BME280;63257;55.082;38.772;2023-09-19T10:57:22;100194.97;;;21.29;61.17
71948;BME280;63257;55.082;38.772;2023-09-19T11:00:09;100186.91;;;21.29;59.99
71948;BME280;63257;55.082;38.772;2023-09-19T11:05:41;100192.81;;;21.42;59.75
71948;BME280;63257;55.082;38.772;2023-09-19T11:08:08;100190.38;;;21.49;59.93
71948;BME280;63257;55.082;38.772;2023-09-19T11:10:50;100170.03;;;21.46;59.72
71948;BME280;63257;55.082;38.772;2023-09-19T11:13:27;100177.69;;;21.41;57.07
71948;BME280;63257;55.082;38.772;2023-09-19T11:16:18;100164.72;;;21.37;58.30
71948;BME280;63257;55.082;38.772;2023-09-19T11:18:54;100182.59;;;21.46;58.77
71948;BME280;63257;55.082;38.772;2023-09-19T11:26:43;100189.09;;;21.91;56.94
71948;BME280;63257;55.082;38.772;2023-09-19T11:29:30;100166.63;;;21.92;56.79
71948;BME280;63257;55.082;38.772;2023-09-19T11:31:57;100160.47;;;21.99;56.28
71948;BME280;63257;55.082;38.772;2023-09-19T11:34:41;100171.56;;;22.14;55.69
71948;BME280;63257;55.082;38.772;2023-09-19T11:39:38;100171.06;;;23.09;52.67
71948;BME280;63257;55.082;38.772;2023-09-19T11:46:14;100164.78;;;23.87;50.40
71948;BME280;63257;55.082;38.772;2023-09-19T11:48:24;100161.22;;;23.79;50.60
71948;BME280;63257;55.082;38.772;2023-09-19T11:50:53;100158.50;;;23.70;50.65
71948;BME280;63257;55.082;38.772;2023-09-19T11:53:21;100144.22;;;23.78;50.70
71948;BME280;63257;55.082;38.772;2023-09-19T11:55:48;100153.66;;;24.50;49.35
71948;BME280;63257;55.082;38.772;2023-09-19T11:58:16;100152.78;;;25.15;47.60
71948;BME280;63257;55.082;38.772;2023-09-19T12:00:45;100146.84;;;25.45;45.55
71948;BME280;63257;55.082;38.772;2023-09-19T12:03:12;100146.88;;;25.84;46.39
71948;BME280;63257;55.082;38.772;2023-09-19T12:05:40;100153.31;;;26.15;44.79
71948;BME280;63257;55.082;38.772;2023-09-19T12:08:07;100151.66;;;26.37;43.78
71948;BME280;63257;55.082;38.772;2023-09-19T12:10:50;100156.88;;;26.62;43.89
71948;BME280;63257;55.082;38.772;2023-09-19T12:13:20;100148.66;;;26.78;43.60
71948;BME280;63257;55.082;38.772;2023-09-19T12:15:46;100142.13;;;27.02;43.06
71948;BME280;63257;55.082;38.772;2023-09-19T12:18:31;100132.72;;;27.13;42.50
71948;BME280;63257;55.082;38.772;2023-09-19T12:20:57;100139.00;;;27.29;42.08
71948;BME280;63257;55.082;38.772;2023-09-19T12:23:24;100119.16;;;27.13;41.60
71948;BME280;63257;55.082;38.772;2023-09-19T12:25:52;100119.13;;;27.36;41.15
71948;BME280;63257;55.082;38.772;2023-09-19T12:28:23;100121.28;;;27.41;41.97
71948;BME280;63257;55.082;38.772;2023-09-19T12:30:52;100108.72;;;27.25;41.33
71948;BME280;63257;55.082;38.772;2023-09-19T12:33:21;100122.81;;;27.35;41.88
71948;BME280;63257;55.082;38.772;2023-09-19T12:35:52;100114.16;;;27.40;41.44
71948;BME280;63257;55.082;38.772;2023-09-19T12:38:29;100110.34;;;27.49;42.14
71948;BME280;63257;55.082;38.772;2023-09-19T12:41:01;100114.91;;;27.49;41.53
71948;BME280;63257;55.082;38.772;2023-09-19T12:43:31;100092.84;;;27.22;41.69
71948;BME280;63257;55.082;38.772;2023-09-19T12:46:01;100097.97;;;27.02;43.13
71948;BME280;63257;55.082;38.772;2023-09-19T12:48:28;100103.03;;;27.35;42.78
71948;BME280;63257;55.082;38.772;2023-09-19T12:51:07;100105.66;;;27.43;41.67
71948;BME280;63257;55.082;38.772;2023-09-19T12:53:37;100102.38;;;27.48;41.65
71948;BME280;63257;55.082;38.772;2023-09-19T12:56:11;100085.84;;;27.42;41.66
71948;BME280;63257;55.082;38.772;2023-09-19T12:58:55;100098.59;;;26.74;43.52
71948;BME280;63257;55.082;38.772;2023-09-19T13:01:23;100089.91;;;26.55;44.29
71948;BME280;63257;55.082;38.772;2023-09-19T13:06:52;100091.78;;;27.23;43.81
71948;BME280;63257;55.082;38.772;2023-09-19T13:09:22;100073.13;;;27.43;42.04
71948;BME280;63257;55.082;38.772;2023-09-19T13:11:54;100078.44;;;27.51;42.45
71948;BME280;63257;55.082;38.772;2023-09-19T13:14:25;100078.53;;;27.58;42.03
71948;BME280;63257;55.082;38.772;2023-09-19T13:17:04;100079.53;;;27.72;42.19
71948;BME280;63257;55.082;38.772;2023-09-19T13:22:46;100076.00;;;27.93;41.53
71948;BME280;63257;55.082;38.772;2023-09-19T13:25:21;100055.72;;;27.89;41.11
71948;BME280;63257;55.082;38.772;2023-09-19T13:30:21;100062.75;;;27.83;41.63
71948;BME280;63257;55.082;38.772;2023-09-19T13:32:48;100059.03;;;27.84;41.75
71948;BME280;63257;55.082;38.772;2023-09-19T13:35:15;100066.81;;;27.72;40.56